createdAt,value
2018-03-08T00:00:43.904Z,99171.23
2018-03-08T00:03:12.356Z,99169.59
2018-03-08T00:05:40.802Z,99172.95
2018-03-08T00:08:09.252Z,99160.14
2018-03-08T00:10:39.229Z,99165.65
2018-03-08T00:13:07.668Z,99159.38
2018-03-08T00:15:36.518Z,99162.30
2018-03-08T00:18:04.969Z,99165.48
2018-03-08T00:20:33.412Z,99169.67
2018-03-08T00:23:01.861Z,99163.60
2018-03-08T00:25:30.304Z,99161.86
2018-03-08T00:27:59.277Z,99173.04
2018-03-08T00:30:28.112Z,99166.86
2018-03-08T00:32:56.551Z,99165.99
2018-03-08T00:35:25.433Z,99167.12
2018-03-08T00:37:53.864Z,99171.47
2018-03-08T00:40:22.328Z,99170.59
2018-03-08T00:42:50.753Z,99167.11
2018-03-08T00:45:19.205Z,99164.15
2018-03-08T00:47:47.651Z,99174.49
2018-03-08T00:50:16.099Z,99174.12
2018-03-08T00:52:44.534Z,99169.21
2018-03-08T00:55:12.973Z,99166.32
2018-03-08T00:57:41.400Z,99171.83
2018-03-08T01:00:09.848Z,99170.09
2018-03-08T01:02:38.679Z,99171.88
2018-03-08T01:05:07.120Z,99171.13
2018-03-08T01:07:35.947Z,99169.27
2018-03-08T01:10:04.397Z,99168.27
2018-03-08T01:12:32.865Z,99167.44
2018-03-08T01:15:01.695Z,99167.08
2018-03-08T01:17:30.148Z,99161.84
2018-03-08T01:19:58.585Z,99165.65
2018-03-08T01:22:27.035Z,99169.44
2018-03-08T01:24:55.492Z,99169.28
2018-03-08T01:27:23.953Z,99171.70
2018-03-08T01:29:52.785Z,99170.57
2018-03-08T01:32:21.240Z,99166.31
2018-03-08T01:34:49.705Z,99167.72
2018-03-08T01:37:18.536Z,99173.80
2018-03-08T01:39:46.974Z,99168.12
2018-03-08T01:42:15.816Z,99165.05
2018-03-08T01:44:44.388Z,99158.42
2018-03-08T01:47:12.844Z,99154.89
2018-03-08T01:49:41.283Z,99157.59
2018-03-08T01:52:12.558Z,99160.15
2018-03-08T01:54:41.396Z,99160.73
2018-03-08T01:57:09.840Z,99158.56
2018-03-08T01:59:38.276Z,99162.59
2018-03-08T02:02:06.725Z,99159.91
2018-03-08T02:04:35.176Z,99164.55
2018-03-08T02:07:04.034Z,99165.79
2018-03-08T02:09:32.480Z,99163.63
2018-03-08T02:12:00.935Z,99170.98
2018-03-08T02:14:29.377Z,99172.26
2018-03-08T02:16:57.832Z,99170.99
2018-03-08T02:19:26.287Z,99160.89
2018-03-08T02:21:54.736Z,99167.42
2018-03-08T02:24:23.570Z,99163.48
2018-03-08T02:26:52.031Z,99167.49
2018-03-08T02:29:20.474Z,99174.36
2018-03-08T02:31:48.942Z,99178.83
2018-03-08T02:34:17.392Z,99172.49
2018-03-08T02:36:46.428Z,99172.55
2018-03-08T02:39:14.864Z,99174.72
2018-03-08T02:41:43.310Z,99180.39
2018-03-08T02:44:12.148Z,99179.09
2018-03-08T02:46:40.604Z,99187.53
2018-03-08T02:49:09.057Z,99187.83
2018-03-08T02:51:37.514Z,99188.95
2018-03-08T02:54:05.958Z,99191.93
2018-03-08T02:56:34.460Z,99194.89
2018-03-08T02:59:02.908Z,99192.67
2018-03-08T03:01:31.374Z,99201.37
2018-03-08T03:04:00.195Z,99200.94
2018-03-08T03:06:28.641Z,99200.77
2018-03-08T03:08:57.087Z,99209.86
2018-03-08T03:11:25.540Z,99202.84
2018-03-08T03:13:54.064Z,99208.66
2018-03-08T03:16:22.516Z,99203.38
2018-03-08T03:18:50.956Z,99204.03
2018-03-08T03:21:19.399Z,99204.73
2018-03-08T03:23:47.943Z,99203.56
2018-03-08T03:26:16.386Z,99201.51
2018-03-08T03:28:45.225Z,99200.44
2018-03-08T03:31:13.693Z,99199.05
2018-03-08T03:33:42.144Z,99202.11
2018-03-08T03:36:10.592Z,99205.94
2018-03-08T03:38:39.039Z,99203.86
2018-03-08T03:41:07.501Z,99216.26
2018-03-08T03:43:35.942Z,99212.36
2018-03-08T03:46:04.382Z,99210.55
2018-03-08T03:48:32.817Z,99212.54
2018-03-08T03:51:01.656Z,99205.91
2018-03-08T03:53:30.094Z,99206.78
2018-03-08T03:55:58.936Z,99201.53
2018-03-08T03:58:27.395Z,99212.39
2018-03-08T04:00:55.847Z,99220.77
2018-03-08T04:03:24.287Z,99216.94
2018-03-08T04:05:52.732Z,99223.87
2018-03-08T04:08:21.176Z,99225.70
2018-03-08T04:10:50.015Z,99223.50
2018-03-08T04:13:18.452Z,99226.28
2018-03-08T04:15:47.284Z,99228.96
2018-03-08T04:18:15.721Z,99227.45
2018-03-08T04:20:44.564Z,99236.68
2018-03-08T04:23:12.983Z,99233.20
2018-03-08T04:25:41.836Z,99236.68
2018-03-08T04:28:10.280Z,99230.25
2018-03-08T04:30:38.723Z,99232.02
2018-03-08T04:33:07.161Z,99231.97
2018-03-08T04:35:35.600Z,99225.74
2018-03-08T04:38:04.027Z,99230.24
2018-03-08T04:40:32.483Z,99229.35
2018-03-08T04:43:00.912Z,99221.89
2018-03-08T04:45:29.371Z,99231.21
2018-03-08T04:47:57.805Z,99226.56
2018-03-08T04:50:26.271Z,99230.83
2018-03-08T04:52:55.129Z,99236.45
2018-03-08T04:55:23.573Z,99234.34
2018-03-08T04:57:52.011Z,99235.98
2018-03-08T05:00:20.444Z,99240.69
2018-03-08T05:02:48.964Z,99236.11
2018-03-08T05:05:17.403Z,99242.94
2018-03-08T05:07:45.853Z,99245.10
2018-03-08T05:10:14.704Z,99247.72
2018-03-08T05:12:43.144Z,99249.45
2018-03-08T05:15:11.599Z,99255.52
2018-03-08T05:17:40.429Z,99249.92
2018-03-08T05:20:08.870Z,99255.32
2018-03-08T05:22:37.312Z,99253.19
2018-03-08T05:25:05.788Z,99258.53
2018-03-08T05:27:34.243Z,99255.34
2018-03-08T05:30:02.692Z,99256.83
2018-03-08T05:32:31.307Z,99257.23
2018-03-08T05:34:59.736Z,99251.08
2018-03-08T05:37:28.174Z,99258.46
2018-03-08T05:39:56.921Z,99256.22
2018-03-08T05:42:25.768Z,99258.40
2018-03-08T05:44:55.304Z,99262.09
2018-03-08T05:47:23.761Z,99263.91
2018-03-08T05:49:52.205Z,99256.06
2018-03-08T05:52:20.656Z,99256.55
2018-03-08T05:54:49.496Z,99256.50
2018-03-08T05:57:17.964Z,99266.05
2018-03-08T05:59:46.397Z,99274.54
2018-03-08T06:02:14.895Z,99274.57
2018-03-08T06:04:43.733Z,99279.34
2018-03-08T06:07:12.194Z,99279.28
2018-03-08T06:09:40.652Z,99284.87
2018-03-08T06:12:10.331Z,99275.27
2018-03-08T06:14:38.763Z,99284.74
2018-03-08T06:17:07.218Z,99289.54
2018-03-08T06:19:36.064Z,99294.28
2018-03-08T06:22:04.537Z,99287.32
2018-03-08T06:24:34.621Z,99306.02
2018-03-08T06:27:03.111Z,99306.91
2018-03-08T06:29:32.460Z,99305.93
2018-03-08T06:32:00.909Z,99310.59
2018-03-08T06:34:29.348Z,99311.44
2018-03-08T06:36:57.787Z,99316.67
2018-03-08T06:39:26.234Z,99319.59
2018-03-08T06:41:54.680Z,99334.55
2018-03-08T06:44:23.121Z,99330.20
2018-03-08T06:46:51.567Z,99332.29
2018-03-08T06:49:19.995Z,99341.21
2018-03-08T06:51:48.455Z,99340.35
2018-03-08T06:54:16.892Z,99341.11
2018-03-08T06:56:45.728Z,99351.03
2018-03-08T06:59:14.164Z,99348.83
2018-03-08T07:01:43.005Z,99355.85
2018-03-08T07:04:11.447Z,99358.36
2018-03-08T07:06:39.902Z,99360.13
2018-03-08T07:09:08.358Z,99360.11
2018-03-08T07:11:36.844Z,99363.70
2018-03-08T07:14:05.301Z,99364.88
2018-03-08T07:16:33.750Z,99367.94
2018-03-08T07:19:02.632Z,99373.12
2018-03-08T07:21:31.480Z,99364.72
2018-03-08T07:23:59.928Z,99372.53
2018-03-08T07:26:28.419Z,99375.11
2018-03-08T07:28:56.861Z,99373.71
2018-03-08T07:31:25.325Z,99376.95
2018-03-08T07:33:53.766Z,99381.23
2018-03-08T07:36:22.230Z,99383.57
2018-03-08T07:38:50.668Z,99389.70
2018-03-08T07:41:19.124Z,99390.85
2018-03-08T07:43:47.560Z,99389.92
2018-03-08T07:46:16.004Z,99394.28
2018-03-08T07:48:44.449Z,99389.53
2018-03-08T07:51:12.982Z,99401.78
2018-03-08T07:53:41.818Z,99402.48
2018-03-08T07:56:10.280Z,99397.47
2018-03-08T07:58:38.728Z,99407.09
2018-03-08T08:01:07.918Z,99407.65
2018-03-08T08:03:36.472Z,99411.55
2018-03-08T08:06:24.064Z,99415.69
2018-03-08T08:09:09.374Z,99424.62
2018-03-08T08:11:37.857Z,99432.45
2018-03-08T08:14:06.310Z,99422.20
2018-03-08T08:16:34.785Z,99424.46
2018-03-08T08:19:03.241Z,99429.97
2018-03-08T08:21:32.083Z,99431.11
2018-03-08T08:24:00.536Z,99432.34
2018-03-08T08:26:29.007Z,99430.96
2018-03-08T08:28:57.836Z,99440.40
2018-03-08T08:31:26.220Z,99439.13
2018-03-08T08:33:54.620Z,99449.92
2018-03-08T08:36:22.984Z,99450.38
2018-03-08T08:38:51.335Z,99452.36
2018-03-08T08:41:19.714Z,99455.33
2018-03-08T08:43:48.106Z,99459.13
2018-03-08T08:46:16.486Z,99456.61
2018-03-08T08:48:44.843Z,99463.44
2018-03-08T08:51:13.224Z,99474.25
2018-03-08T08:53:41.600Z,99473.97
2018-03-08T08:56:09.978Z,99475.73
2018-03-08T08:58:38.348Z,99480.42
2018-03-08T09:01:06.714Z,99481.63
2018-03-08T09:03:35.464Z,99487.95
2018-03-08T09:06:03.817Z,99488.61
2018-03-08T09:08:32.432Z,99487.62
2018-03-08T09:11:01.234Z,99496.30
2018-03-08T09:13:29.593Z,99496.63
2018-03-08T09:15:57.973Z,99498.80
2018-03-08T09:18:26.339Z,99509.94
2018-03-08T09:20:54.708Z,99504.13
2018-03-08T09:23:23.056Z,99511.11
2018-03-08T09:25:51.836Z,99508.49
2018-03-08T09:28:20.587Z,99514.94
2018-03-08T09:30:49.134Z,99515.77
2018-03-08T09:33:17.495Z,99522.42
2018-03-08T09:35:46.247Z,99515.94
2018-03-08T09:38:14.588Z,99515.08
2018-03-08T09:40:42.958Z,99519.34
2018-03-08T09:43:11.333Z,99522.82
2018-03-08T09:45:39.695Z,99525.12
2018-03-08T09:48:08.471Z,99524.25
2018-03-08T09:50:36.849Z,99528.48
2018-03-08T09:53:05.600Z,99525.42
2018-03-08T09:55:33.956Z,99529.97
2018-03-08T09:58:02.340Z,99537.42
2018-03-08T10:00:30.738Z,99540.39
2018-03-08T10:02:59.158Z,99543.76
2018-03-08T10:05:28.217Z,99542.45
2018-03-08T10:07:56.600Z,99549.47
2018-03-08T10:10:24.971Z,99555.59
2018-03-08T10:12:53.494Z,99548.48
2018-03-08T10:15:21.843Z,99550.72
2018-03-08T10:17:50.192Z,99547.73
2018-03-08T10:20:18.548Z,99553.80
2018-03-08T10:22:46.939Z,99552.45
2018-03-08T10:25:15.313Z,99560.81
2018-03-08T10:27:43.708Z,99555.86
2018-03-08T10:30:12.106Z,99570.26
2018-03-08T10:32:40.511Z,99560.64
2018-03-08T10:37:37.244Z,99568.06
2018-03-08T10:40:05.608Z,99571.88
2018-03-08T10:45:02.456Z,99575.81
2018-03-08T10:47:30.825Z,99584.19
2018-03-08T10:49:59.180Z,99589.27
2018-03-08T10:52:27.954Z,99589.27
2018-03-08T10:54:56.316Z,99594.78
2018-03-08T10:57:24.707Z,99597.77
2018-03-08T10:59:53.064Z,99594.55
2018-03-08T11:02:26.920Z,99593.22
2018-03-08T11:05:00.920Z,99591.23
2018-03-08T11:07:29.680Z,99596.73
2018-03-08T11:09:58.033Z,99600.05
2018-03-08T11:12:26.408Z,99596.67
2018-03-08T11:14:54.776Z,99603.75
2018-03-08T11:17:23.143Z,99590.67
2018-03-08T11:19:51.512Z,99592.55
2018-03-08T11:22:19.893Z,99584.94
2018-03-08T11:24:48.248Z,99592.99
2018-03-08T11:27:16.606Z,99589.23
2018-03-08T11:29:44.957Z,99591.28
2018-03-08T11:32:13.314Z,99595.58
2018-03-08T11:34:41.705Z,99591.53
2018-03-08T11:37:10.118Z,99586.92
2018-03-08T11:39:38.480Z,99593.29
2018-03-08T11:42:06.861Z,99598.29
2018-03-08T11:44:36.394Z,99596.23
2018-03-08T11:47:03.607Z,99588.91
2018-03-08T11:49:32.045Z,99591.66
2018-03-08T11:52:00.825Z,99594.54
2018-03-08T11:54:29.591Z,99595.20
2018-03-08T11:56:57.974Z,99598.24
2018-03-08T11:59:26.337Z,99593.95
2018-03-08T12:01:54.735Z,99599.83
2018-03-08T12:04:23.104Z,99594.64
2018-03-08T12:06:51.482Z,99602.61
2018-03-08T12:09:19.843Z,99600.09
2018-03-08T12:11:48.232Z,99594.38
2018-03-08T12:14:16.580Z,99591.91
2018-03-08T12:16:44.959Z,99594.77
2018-03-08T12:19:13.339Z,99595.30
2018-03-08T12:21:41.732Z,99593.47
2018-03-08T12:25:23.676Z,99588.19
2018-03-08T12:27:52.046Z,99593.69
2018-03-08T12:30:20.404Z,99583.92
2018-03-08T12:32:48.760Z,99585.70
2018-03-08T12:35:17.115Z,99588.28
2018-03-08T12:37:45.897Z,99582.43
2018-03-08T12:41:46.030Z,99588.37
2018-03-08T12:44:14.788Z,99584.16
2018-03-08T12:46:43.271Z,99585.17
2018-03-08T12:49:11.616Z,99585.56
2018-03-08T12:51:39.992Z,99580.31
2018-03-08T12:56:43.066Z,99576.55
2018-03-08T12:59:11.441Z,99576.68
2018-03-08T13:01:39.799Z,99574.77
2018-03-08T13:04:08.572Z,99572.47
2018-03-08T13:06:37.054Z,99572.31
2018-03-08T13:09:05.408Z,99570.30
2018-03-08T13:11:33.785Z,99577.52
2018-03-08T13:14:02.152Z,99571.14
2018-03-08T13:16:30.567Z,99572.71
2018-03-08T13:18:58.924Z,99570.20
2018-03-08T13:21:27.302Z,99566.89
2018-03-08T13:23:55.652Z,99560.91
2018-03-08T13:26:24.019Z,99563.05
2018-03-08T13:28:52.779Z,99567.70
2018-03-08T13:31:21.136Z,99564.02
2018-03-08T13:33:49.484Z,99563.15
2018-03-08T13:36:17.857Z,99560.17
2018-03-08T13:38:46.212Z,99559.97
2018-03-08T13:41:14.973Z,99562.63
2018-03-08T13:43:43.324Z,99559.98
2018-03-08T13:46:11.704Z,99559.76
2018-03-08T13:48:40.089Z,99556.11
2018-03-08T13:51:08.460Z,99551.02
2018-03-08T13:53:36.861Z,99554.66
2018-03-08T13:56:05.264Z,99548.69
2018-03-08T13:58:33.623Z,99554.85
2018-03-08T14:01:01.984Z,99553.63
2018-03-08T14:03:30.336Z,99553.98
2018-03-08T14:05:58.720Z,99554.77
2018-03-08T14:08:27.205Z,99549.63
2018-03-08T14:10:55.558Z,99551.11
2018-03-08T14:13:24.307Z,99554.45
2018-03-08T14:15:52.667Z,99556.71
2018-03-08T14:18:21.025Z,99554.94
2018-03-08T14:20:49.409Z,99557.36
2018-03-08T14:23:17.784Z,99553.92
2018-03-08T14:25:46.148Z,99547.42
2018-03-08T14:28:14.506Z,99550.61
2018-03-08T14:30:43.288Z,99550.16
2018-03-08T14:33:12.046Z,99549.76
2018-03-08T14:35:40.414Z,99552.11
2018-03-08T14:38:08.769Z,99551.47
2018-03-08T14:40:37.143Z,99545.45
2018-03-08T14:43:05.510Z,99543.45
2018-03-08T14:45:33.875Z,99538.91
2018-03-08T14:48:02.651Z,99536.92
2018-03-08T14:50:30.992Z,99535.42
2018-03-08T14:52:59.474Z,99528.27
2018-03-08T14:55:27.841Z,99526.00
2018-03-08T14:57:56.193Z,99535.98
2018-03-08T15:00:24.558Z,99526.20
2018-03-08T15:02:53.306Z,99523.45
2018-03-08T15:05:21.659Z,99528.67
2018-03-08T15:07:50.028Z,99531.78
2018-03-08T15:10:18.405Z,99525.77
2018-03-08T15:12:46.755Z,99524.27
2018-03-08T15:15:15.497Z,99518.86
2018-03-08T15:17:43.902Z,99520.09
2018-03-08T15:20:12.254Z,99521.42
2018-03-08T15:22:40.604Z,99519.23
2018-03-08T15:25:08.955Z,99523.80
2018-03-08T15:27:37.691Z,99522.42
2018-03-08T15:30:06.049Z,99518.39
2018-03-08T15:32:34.408Z,99513.87
2018-03-08T15:35:03.208Z,99507.91
2018-03-08T15:37:31.548Z,99506.72
2018-03-08T15:39:59.896Z,99514.48
2018-03-08T15:42:28.260Z,99519.09
2018-03-08T15:44:56.613Z,99513.73
2018-03-08T15:47:25.407Z,99505.23
2018-03-08T15:49:53.765Z,99507.31
2018-03-08T15:52:22.518Z,99513.28
2018-03-08T15:54:50.860Z,99508.92
2018-03-08T15:57:19.220Z,99514.20
2018-03-08T15:59:47.962Z,99508.92
2018-03-08T16:02:16.332Z,99499.56
2018-03-08T16:04:44.685Z,99506.30
2018-03-08T16:10:40.480Z,99508.22
2018-03-08T16:13:08.823Z,99508.78
2018-03-08T16:15:37.184Z,99505.38
2018-03-08T16:18:05.532Z,99511.08
2018-03-08T16:20:33.896Z,99508.87
2018-03-08T16:23:02.251Z,99512.48
2018-03-08T16:25:30.630Z,99502.04
2018-03-08T16:27:59.007Z,99511.06
2018-03-08T16:30:27.373Z,99502.08
2018-03-08T16:32:55.736Z,99506.59
2018-03-08T16:35:24.120Z,99505.72
2018-03-08T16:37:52.471Z,99499.34
2018-03-08T16:40:21.231Z,99503.30
2018-03-08T16:42:49.593Z,99500.16
2018-03-08T16:45:17.963Z,99496.84
2018-03-08T16:47:46.303Z,99494.97
2018-03-08T16:50:14.679Z,99503.70
2018-03-08T16:52:43.039Z,99499.45
2018-03-08T16:55:11.791Z,99499.11
2018-03-08T16:57:40.164Z,99495.59
2018-03-08T17:00:08.503Z,99489.04
2018-03-08T17:02:36.871Z,99488.95
2018-03-08T17:05:05.628Z,99494.83
2018-03-08T17:07:34.021Z,99494.74
2018-03-08T17:10:02.368Z,99495.74
2018-03-08T17:12:30.719Z,99493.97
2018-03-08T17:14:59.067Z,99498.41
2018-03-08T17:17:27.812Z,99492.46
2018-03-08T17:19:56.167Z,99497.73
2018-03-08T17:22:24.528Z,99507.48
2018-03-08T17:24:52.909Z,99502.64
2018-03-08T17:27:21.260Z,99501.87
2018-03-08T17:29:49.613Z,99507.39
2018-03-08T17:32:17.994Z,99505.45
2018-03-08T17:34:46.357Z,99504.05
2018-03-08T17:37:14.734Z,99503.76
2018-03-08T17:39:43.116Z,99504.61
2018-03-08T17:42:11.486Z,99502.11
2018-03-08T17:44:39.992Z,99504.50
2018-03-08T17:47:08.360Z,99510.91
2018-03-08T17:49:36.720Z,99502.31
2018-03-08T17:52:05.079Z,99498.93
2018-03-08T17:54:33.458Z,99505.87
2018-03-08T17:57:02.193Z,99495.50
2018-03-08T17:59:30.551Z,99489.64
2018-03-08T18:01:58.912Z,99492.42
2018-03-08T18:04:27.259Z,99495.66
2018-03-08T18:06:56.022Z,99497.02
2018-03-08T18:09:24.377Z,99500.66
2018-03-08T18:11:52.752Z,99496.05
2018-03-08T18:14:21.129Z,99490.24
2018-03-08T18:16:49.495Z,99487.55
2018-03-08T18:19:17.857Z,99494.64
2018-03-08T18:21:46.218Z,99483.99
2018-03-08T18:24:14.967Z,99487.71
2018-03-08T18:26:43.340Z,99491.65
2018-03-08T18:29:11.684Z,99485.11
2018-03-08T18:31:40.032Z,99482.37
2018-03-08T18:34:08.776Z,99482.52
2018-03-08T18:36:37.138Z,99482.99
2018-03-08T18:39:05.480Z,99490.85
2018-03-08T18:41:34.227Z,99481.22
2018-03-08T18:44:02.583Z,99478.29
2018-03-08T18:46:30.943Z,99477.14
2018-03-08T18:48:59.287Z,99468.92
2018-03-08T18:51:27.643Z,99465.80
2018-03-08T18:53:56.007Z,99469.77
2018-03-08T18:56:24.388Z,99461.73
2018-03-08T18:58:52.876Z,99464.46
2018-03-08T19:01:21.484Z,99459.35
2018-03-08T19:03:50.357Z,99453.09
2018-03-08T19:06:18.754Z,99452.80
2018-03-08T19:08:47.104Z,99443.45
2018-03-08T19:11:15.479Z,99441.30
2018-03-08T19:13:43.858Z,99440.50
2018-03-08T19:16:12.224Z,99438.03
2018-03-08T19:18:40.558Z,99440.27
2018-03-08T19:21:08.911Z,99432.91
2018-03-08T19:23:37.252Z,99429.28
2018-03-08T19:26:05.608Z,99431.05
2018-03-08T19:28:34.352Z,99431.48
2018-03-08T19:31:02.720Z,99434.61
2018-03-08T19:33:31.077Z,99427.42
2018-03-08T19:35:59.432Z,99429.27
2018-03-08T19:38:27.788Z,99426.08
2018-03-08T19:40:56.148Z,99429.39
2018-03-08T19:43:24.489Z,99429.87
2018-03-08T19:45:52.892Z,99427.90
2018-03-08T19:48:21.244Z,99429.14
2018-03-08T19:50:49.595Z,99429.87
2018-03-08T19:53:18.347Z,99427.88
2018-03-08T19:55:46.712Z,99432.48
2018-03-08T19:58:15.086Z,99424.12
2018-03-08T20:00:43.465Z,99423.92
2018-03-08T20:03:11.843Z,99424.68
2018-03-08T20:05:40.205Z,99414.56
2018-03-08T20:09:48.544Z,99419.62
2018-03-08T20:12:16.925Z,99419.23
2018-03-08T20:14:45.281Z,99428.00
2018-03-08T20:17:13.633Z,99423.85
2018-03-08T20:19:42.369Z,99418.81
2018-03-08T20:22:10.764Z,99413.67
2018-03-08T20:24:39.117Z,99419.03
2018-03-08T20:27:07.480Z,99412.72
2018-03-08T20:29:35.888Z,99410.68
2018-03-08T20:32:04.253Z,99407.04
2018-03-08T20:34:32.592Z,99413.95
2018-03-08T20:37:01.403Z,99409.23
2018-03-08T20:39:29.716Z,99405.53
2018-03-08T20:41:58.077Z,99402.84
2018-03-08T20:44:26.435Z,99407.16
2018-03-08T20:46:54.947Z,99402.88
2018-03-08T20:49:23.329Z,99400.68
2018-03-08T20:51:51.675Z,99397.85
2018-03-08T20:54:20.112Z,99402.69
2018-03-08T20:56:48.468Z,99397.78
2018-03-08T20:59:16.804Z,99399.33
2018-03-08T21:01:45.227Z,99402.02
2018-03-08T21:04:13.576Z,99402.89
2018-03-08T21:06:41.932Z,99408.76
2018-03-08T21:09:10.695Z,99410.20
2018-03-08T21:11:39.051Z,99417.79
2018-03-08T21:14:07.410Z,99411.88
2018-03-08T21:16:35.808Z,99417.94
2018-03-08T21:19:04.167Z,99419.15
2018-03-08T21:21:32.557Z,99416.11
2018-03-08T21:24:00.884Z,99414.81
2018-03-08T21:26:29.683Z,99420.73
2018-03-08T21:28:58.130Z,99426.11
2018-03-08T21:31:26.482Z,99419.66
2018-03-08T21:33:54.850Z,99419.63
2018-03-08T21:36:23.211Z,99430.61
2018-03-08T21:38:51.560Z,99430.14
2018-03-08T21:41:19.908Z,99423.96
2018-03-08T21:43:48.261Z,99426.17
2018-03-08T21:46:16.927Z,99424.59
2018-03-08T21:48:45.347Z,99410.40
2018-03-08T21:51:13.706Z,99412.02
2018-03-08T21:53:42.063Z,99410.40
2018-03-08T21:56:10.428Z,99395.09
2018-03-08T21:58:38.784Z,99392.90
2018-03-08T22:01:07.141Z,99389.11
2018-03-08T22:03:35.489Z,99387.84
2018-03-08T22:06:03.839Z,99388.36
2018-03-08T22:08:32.191Z,99389.67
2018-03-08T22:11:00.546Z,99387.55
2018-03-08T22:13:28.892Z,99386.75
2018-03-08T22:15:57.267Z,99368.72
2018-03-08T22:18:25.605Z,99367.28
2018-03-08T22:20:53.975Z,99349.16
2018-03-08T22:23:22.314Z,99334.98
2018-03-08T22:25:50.667Z,99341.02
2018-03-08T22:28:19.409Z,99338.47
2018-03-08T22:30:47.762Z,99338.06
2018-03-08T22:33:16.128Z,99331.57
2018-03-08T22:35:44.477Z,99327.91
2018-03-08T22:38:12.829Z,99341.15
2018-03-08T22:40:41.183Z,99343.77
2018-03-08T22:43:09.549Z,99347.53
2018-03-08T22:45:37.927Z,99368.84
2018-03-08T22:48:06.276Z,99379.26
2018-03-08T22:50:35.045Z,99388.05
2018-03-08T22:53:03.388Z,99396.30
2018-03-08T22:55:31.779Z,99406.50
2018-03-08T22:58:00.125Z,99412.62
2018-03-08T23:00:28.478Z,99419.45
2018-03-08T23:03:02.980Z,99420.26
2018-03-08T23:05:31.361Z,99436.27
2018-03-08T23:07:59.706Z,99436.39
2018-03-08T23:10:28.095Z,99440.62
2018-03-08T23:12:56.444Z,99429.70
2018-03-08T23:15:24.789Z,99432.81
2018-03-08T23:17:53.130Z,99433.97
2018-03-08T23:20:21.488Z,99439.27
2018-03-08T23:22:49.822Z,99445.32
2018-03-08T23:25:18.358Z,99455.38
2018-03-08T23:27:46.871Z,99451.65
2018-03-08T23:30:15.236Z,99446.77
2018-03-08T23:32:43.578Z,99446.81
2018-03-08T23:35:11.957Z,99431.09
2018-03-08T23:37:40.308Z,99431.34
2018-03-08T23:40:09.052Z,99425.27
2018-03-08T23:42:37.394Z,99416.52
2018-03-08T23:45:05.744Z,99405.98
2018-03-08T23:47:34.487Z,99402.83
2018-03-08T23:50:02.863Z,99409.98
2018-03-08T23:52:31.222Z,99407.37
2018-03-08T23:54:59.563Z,99414.44
2018-03-08T23:57:27.909Z,99415.45
2018-03-08T23:59:56.256Z,99419.38
